Time;durP1;ratioP1;P1;durP2;ratioP2;P2;SDS_P1;SDS_P2;PMS_P1;PMS_P2;Temp;Humidity;BMP_temperature;BMP_pressure;BME280_temperature;BME280_humidity;BME280_pressure;Samples;Min_cycle;Max_cycle;Signal;HPM_P1;HPM_P2
2021/04/10 00:02:12;;;;;;;3.95;0.93;;;;;;;3.04;72.71;100330.63;5091065;28;20069;-76
2021/04/10 00:04:37;;;;;;;5.18;1.23;;;;;;;3.02;72.48;100348.06;5090288;28;20112;-76
2021/04/10 00:07:04;;;;;;;10.80;1.48;;;;;;;3.01;73.11;100325.69;5092112;28;20024;-75
2021/04/10 00:09:29;;;;;;;13.68;3.28;;;;;;;3.03;73.23;100323.59;5091086;28;20500;-76
2021/04/10 00:11:54;;;;;;;10.35;2.38;;;;;;;3.09;72.79;100333.41;5090879;28;20024;-75
2021/04/10 00:14:20;;;;;;;7.00;1.30;;;;;;;3.15;73.06;100336.22;5089333;28;20094;-75
2021/04/10 00:16:45;;;;;;;18.95;3.90;;;;;;;3.21;72.50;100341.47;5091669;28;20043;-76
2021/04/10 00:19:12;;;;;;;16.00;2.38;;;;;;;3.25;73.54;100336.47;5089616;28;20024;-75
2021/04/10 00:21:37;;;;;;;9.07;2.45;;;;;;;3.24;73.49;100359.88;5090622;28;20032;-76
2021/04/10 00:24:03;;;;;;;10.93;2.17;;;;;;;3.23;72.94;100335.88;5090884;28;20031;-75
2021/04/10 00:26:28;;;;;;;6.25;1.83;;;;;;;3.19;73.08;100356.25;5090478;28;20107;-75
2021/04/10 00:28:54;;;;;;;16.25;2.22;;;;;;;3.14;73.77;100361.50;5089331;28;20043;-76
2021/04/10 00:31:20;;;;;;;13.48;2.90;;;;;;;3.07;73.90;100346.28;5092190;28;20028;-75
2021/04/10 00:33:46;;;;;;;17.60;4.25;;;;;;;3.05;74.32;100336.81;5086869;28;20024;-75
2021/04/10 00:36:13;;;;;;;10.05;2.00;;;;;;;3.00;75.08;100355.53;5093001;28;20073;-76
2021/04/10 00:38:38;;;;;;;10.05;2.13;;;;;;;3.01;75.03;100367.97;5069486;28;20322;-75
2021/04/10 00:41:05;;;;;;;14.50;2.63;;;;;;;3.01;75.65;100346.44;5092345;28;20035;-76
2021/04/10 00:43:30;;;;;;;16.48;2.20;;;;;;;3.02;75.84;100348.88;5090625;28;20047;-76
2021/04/10 00:45:57;;;;;;;9.68;2.47;;;;;;;3.01;75.12;100370.66;5088973;28;21531;-76
2021/04/10 00:48:22;;;;;;;8.70;2.17;;;;;;;3.01;75.71;100358.00;5091804;28;20491;-76
2021/04/10 00:50:48;;;;;;;16.20;2.72;;;;;;;3.04;75.85;100408.72;5092394;28;20022;-76
2021/04/10 00:53:17;;;;;;;9.00;1.70;;;;;;;3.06;75.81;100366.22;5090576;28;20487;-76
2021/04/10 00:55:44;;;;;;;11.05;2.50;;;;;;;3.09;75.63;100338.81;5090173;28;20393;-76
2021/04/10 00:58:09;;;;;;;7.75;1.73;;;;;;;3.11;75.83;100395.97;5091680;28;20111;-76
2021/04/10 01:00:35;;;;;;;11.57;2.17;;;;;;;3.13;75.89;100376.03;5073278;28;20099;-75
2021/04/10 01:03:01;;;;;;;13.23;2.40;;;;;;;3.14;76.02;100362.34;5092377;28;20397;-76
2021/04/10 01:05:26;;;;;;;7.63;2.30;;;;;;;3.19;75.66;100369.72;5091586;28;20473;-76
2021/04/10 01:07:52;;;;;;;6.72;1.52;;;;;;;3.23;75.54;100387.88;5091943;28;20024;-76
2021/04/10 01:10:18;;;;;;;11.85;2.10;;;;;;;3.26;75.44;100368.53;5078022;28;20032;-76
2021/04/10 01:13:08;;;;;;;8.38;2.03;;;;;;;3.23;75.32;100363.63;5090084;28;20169;-75
2021/04/10 01:15:44;;;;;;;9.20;2.17;;;;;;;3.25;74.85;100384.94;5091726;28;20031;-76
2021/04/10 01:19:00;;;;;;;6.68;1.80;;;;;;;3.29;74.92;100383.41;5087485;28;20036;-76
2021/04/10 01:21:30;;;;;;;8.75;1.65;;;;;;;3.31;74.40;100384.81;5066932;28;20028;-75
2021/04/10 01:24:07;;;;;;;7.85;2.38;;;;;;;3.38;74.90;100386.56;5088980;28;20469;-76
2021/04/10 01:26:53;;;;;;;7.22;2.10;;;;;;;3.38;74.62;100395.47;5092488;28;20031;-76
2021/04/10 01:29:20;;;;;;;12.50;2.10;;;;;;;3.40;74.62;100385.28;5090293;28;20049;-76
2021/04/10 01:31:47;;;;;;;12.65;3.20;;;;;;;3.41;74.75;100405.78;5071518;28;20033;-76
2021/04/10 01:34:15;;;;;;;9.52;1.60;;;;;;;3.38;74.52;100368.50;5086365;28;20048;-76
2021/04/10 01:36:41;;;;;;;8.80;1.63;;;;;;;3.35;74.87;100374.38;5084340;28;20508;-76
2021/04/10 01:39:08;;;;;;;11.13;1.88;;;;;;;3.33;74.81;100387.28;5087395;28;20039;-76
2021/04/10 01:41:34;;;;;;;14.55;3.40;;;;;;;3.31;74.21;100390.22;5090193;28;20081;-76
2021/04/10 01:44:00;;;;;;;13.52;2.60;;;;;;;3.31;74.12;100400.16;5069321;28;20400;-76
2021/04/10 01:46:25;;;;;;;9.57;1.65;;;;;;;3.31;74.50;100374.03;5091653;28;20044;-76
2021/04/10 01:48:51;;;;;;;10.15;1.88;;;;;;;3.29;73.67;100402.28;5089939;28;20038;-76
2021/04/10 01:51:16;;;;;;;14.18;1.98;;;;;;;3.29;73.82;100399.56;5058105;28;20354;-76
2021/04/10 01:53:42;;;;;;;8.00;2.20;;;;;;;3.26;74.07;100398.16;5086189;28;20047;-76
2021/04/10 01:56:07;;;;;;;8.63;1.92;;;;;;;3.23;73.45;100408.59;5074055;28;20487;-76
2021/04/10 01:58:34;;;;;;;10.45;1.95;;;;;;;3.18;73.93;100390.44;5090344;28;20036;-76
2021/04/10 02:00:59;;;;;;;8.10;1.85;;;;;;;3.11;73.43;100401.34;5091101;28;20028;-76
2021/04/10 02:03:28;;;;;;;9.10;2.40;;;;;;;3.09;74.24;100381.09;5054604;28;20036;-76
2021/04/10 02:05:53;;;;;;;7.63;1.92;;;;;;;3.06;74.71;100385.06;5090525;28;20024;-76
2021/04/10 02:08:24;;;;;;;9.57;2.05;;;;;;;3.05;75.04;100394.19;5086912;28;20497;-75
2021/04/10 02:10:50;;;;;;;13.15;1.95;;;;;;;3.01;75.62;100405.66;5088811;28;20043;-76
2021/04/10 02:13:15;;;;;;;15.52;1.88;;;;;;;2.97;75.44;100410.69;5060660;28;20028;-76
2021/04/10 02:15:41;;;;;;;7.70;1.90;;;;;;;2.95;75.29;100391.28;5069412;28;20474;-76
2021/04/10 02:18:07;;;;;;;6.45;1.48;;;;;;;2.92;74.94;100391.75;5088918;28;20024;-76
2021/04/10 02:20:32;;;;;;;17.27;2.70;;;;;;;2.91;75.69;100387.38;5089514;28;20024;-76
2021/04/10 02:22:58;;;;;;;9.18;2.20;;;;;;;2.93;75.52;100392.56;5090660;28;20024;-76
2021/04/10 02:25:27;;;;;;;9.00;2.75;;;;;;;2.94;76.00;100404.94;5089407;28;20024;-76
2021/04/10 02:27:53;;;;;;;13.30;3.40;;;;;;;2.93;75.60;100403.31;5061408;28;20035;-76
2021/04/10 02:30:19;;;;;;;11.95;3.33;;;;;;;2.97;75.67;100399.09;5086933;28;20031;-76
2021/04/10 02:32:49;;;;;;;16.95;2.28;;;;;;;2.98;75.47;100412.34;5091159;28;20039;-76
2021/04/10 02:35:21;;;;;;;6.90;1.95;;;;;;;3.01;75.25;100428.03;5087583;28;20076;-76
2021/04/10 02:37:47;;;;;;;7.40;2.28;;;;;;;3.02;75.46;100396.53;5090553;28;20020;-77
2021/04/10 02:40:13;;;;;;;10.85;1.92;;;;;;;3.04;75.78;100435.63;5072367;28;20496;-76
2021/04/10 02:42:42;;;;;;;11.77;2.10;;;;;;;3.10;75.26;100413.16;5090325;28;20027;-76
2021/04/10 02:45:09;;;;;;;14.68;2.17;;;;;;;3.18;75.29;100403.09;5088108;28;20489;-76
2021/04/10 02:47:34;;;;;;;9.68;1.88;;;;;;;3.22;75.69;100409.63;5089313;28;20024;-76
2021/04/10 02:50:02;;;;;;;7.70;1.73;;;;;;;3.20;75.70;100414.47;5068161;28;20508;-76
2021/04/10 02:52:39;;;;;;;11.77;2.40;;;;;;;3.21;75.63;100416.91;5087139;28;21631;-76
2021/04/10 02:55:05;;;;;;;14.63;2.38;;;;;;;3.23;75.62;100414.00;5088253;28;20047;-76
2021/04/10 02:57:31;;;;;;;6.10;1.35;;;;;;;3.24;75.39;100421.00;5073390;28;20496;-75
2021/04/10 03:00:01;;;;;;;4.57;1.48;;;;;;;3.26;74.91;100421.59;5072210;28;20361;-76
2021/04/10 03:02:26;;;;;;;18.00;2.03;;;;;;;3.29;75.63;100413.88;5090780;28;20024;-76
2021/04/10 03:04:52;;;;;;;9.18;1.67;;;;;;;3.30;75.60;100417.38;5087611;28;20104;-76
2021/04/10 03:07:17;;;;;;;16.92;3.20;;;;;;;3.32;75.18;100424.16;5091353;28;20024;-76
2021/04/10 03:09:44;;;;;;;10.27;2.13;;;;;;;3.32;75.25;100423.34;5089791;28;20028;-76
2021/04/10 03:12:11;;;;;;;11.18;2.47;;;;;;;3.33;75.03;100411.53;5089442;28;20032;-76
2021/04/10 03:14:37;;;;;;;17.58;2.45;;;;;;;3.34;74.96;100416.69;5082134;28;20033;-76
2021/04/10 03:17:02;;;;;;;17.92;2.92;;;;;;;3.36;75.38;100421.84;5089001;28;20020;-76
2021/04/10 03:19:28;;;;;;;9.35;1.88;;;;;;;3.40;75.71;100431.06;5088681;28;20103;-78
2021/04/10 03:21:53;;;;;;;10.05;2.33;;;;;;;3.41;75.44;100421.97;5070426;28;20266;-78
2021/04/10 03:24:19;;;;;;;7.82;2.22;;;;;;;3.45;75.79;100441.97;5088473;28;20031;-77
2021/04/10 03:26:44;;;;;;;6.22;1.70;;;;;;;3.44;75.10;100432.25;5066514;28;20025;-76
2021/04/10 03:29:10;;;;;;;11.32;1.50;;;;;;;3.45;74.86;100417.72;5075547;28;20392;-78
2021/04/10 03:31:36;;;;;;;6.63;1.50;;;;;;;3.50;74.53;100428.63;5094532;28;20024;-77
2021/04/10 03:34:03;;;;;;;8.20;2.72;;;;;;;3.53;74.05;100452.41;5075179;28;20016;-76
2021/04/10 03:36:29;;;;;;;9.73;2.00;;;;;;;3.51;74.41;100432.94;5091742;28;20036;-76
2021/04/10 03:38:54;;;;;;;9.45;2.28;;;;;;;3.49;74.54;100427.00;5073528;28;20024;-76
2021/04/10 03:41:22;;;;;;;8.38;1.52;;;;;;;3.45;74.55;100436.59;5089818;28;20385;-77
2021/04/10 03:43:47;;;;;;;10.55;1.70;;;;;;;3.44;74.71;100443.03;5058901;28;20024;-76
2021/04/10 03:46:13;;;;;;;4.70;1.50;;;;;;;3.44;74.62;100443.03;5089999;28;20055;-76
2021/04/10 03:48:38;;;;;;;10.50;1.73;;;;;;;3.47;74.73;100447.16;5091176;28;20151;-76
2021/04/10 03:51:04;;;;;;;8.70;2.53;;;;;;;3.47;74.80;100455.22;5093708;28;20028;-76
2021/04/10 03:53:29;;;;;;;9.27;1.88;;;;;;;3.47;75.23;100464.13;5077110;28;20107;-76
2021/04/10 03:55:55;;;;;;;12.50;1.63;;;;;;;3.46;75.33;100459.78;5079950;28;20496;-77
2021/04/10 03:58:20;;;;;;;14.98;1.80;;;;;;;3.45;74.65;100466.22;5084601;28;20485;-76
2021/04/10 04:00:45;;;;;;;7.80;1.73;;;;;;;3.46;74.48;100464.34;5092951;28;20039;-75
2021/04/10 04:03:12;;;;;;;7.35;1.08;;;;;;;3.46;74.05;100478.63;5094862;28;20031;-76
2021/04/10 04:05:38;;;;;;;3.75;1.00;;;;;;;3.49;73.66;100470.13;5090097;28;20028;-75
2021/04/10 04:08:03;;;;;;;12.75;1.58;;;;;;;3.55;73.36;100482.63;5089116;28;20455;-76
2021/04/10 04:10:29;;;;;;;14.68;1.75;;;;;;;3.60;73.43;100471.16;5091982;28;20476;-74
2021/04/10 04:12:54;;;;;;;6.97;1.73;;;;;;;3.60;72.95;100475.72;5094124;28;20032;-75
2021/04/10 04:15:19;;;;;;;6.40;1.77;;;;;;;3.62;72.67;100495.16;5092215;28;20081;-75
2021/04/10 04:17:45;;;;;;;8.32;1.85;;;;;;;3.65;72.04;100481.22;5093133;28;20058;-76
2021/04/10 04:20:11;;;;;;;7.38;1.50;;;;;;;3.67;72.52;100479.13;5089031;28;20078;-76
2021/04/10 04:22:36;;;;;;;11.30;1.95;;;;;;;3.66;72.72;100507.13;5086561;28;20070;-75
2021/04/10 04:25:02;;;;;;;7.75;1.27;;;;;;;3.64;72.73;100495.75;5088267;28;20488;-75
2021/04/10 04:27:28;;;;;;;18.83;2.75;;;;;;;3.56;73.50;100478.88;5093253;28;20134;-78
2021/04/10 04:29:54;;;;;;;8.60;1.90;;;;;;;3.51;73.47;100494.94;5091897;28;20477;-76
2021/04/10 04:32:21;;;;;;;16.88;1.75;;;;;;;3.46;74.31;100510.97;5091982;28;20047;-76
2021/04/10 04:34:47;;;;;;;15.30;2.13;;;;;;;3.43;73.89;100507.94;5093067;28;20051;-76
2021/04/10 04:37:13;;;;;;;9.85;1.70;;;;;;;3.44;74.23;100496.94;5090939;28;20026;-77
2021/04/10 04:39:38;;;;;;;13.82;2.50;;;;;;;3.45;74.71;100514.75;5057271;28;20020;-76
2021/04/10 04:42:09;;;;;;;17.15;1.92;;;;;;;3.44;74.73;100513.09;5091859;28;20089;-75
2021/04/10 04:44:34;;;;;;;14.30;2.45;;;;;;;3.42;74.59;100512.50;5093190;28;20386;-75
2021/04/10 04:47:00;;;;;;;7.97;1.95;;;;;;;3.41;74.61;100510.88;5094341;28;20094;-78
2021/04/10 04:49:26;;;;;;;12.88;2.88;;;;;;;3.42;75.42;100520.59;5090225;28;20040;-78
2021/04/10 04:51:54;;;;;;;8.85;1.50;;;;;;;3.41;75.00;100521.66;5092548;28;20505;-76
2021/04/10 04:54:20;;;;;;;9.13;1.35;;;;;;;3.42;75.38;100530.56;5073808;28;20024;-77
2021/04/10 04:56:46;;;;;;;16.70;2.53;;;;;;;3.43;74.85;100516.84;5091430;28;20044;-77
2021/04/10 04:59:12;;;;;;;9.88;1.70;;;;;;;3.46;75.03;100531.72;5055105;28;20050;-76
2021/04/10 05:01:41;;;;;;;11.63;1.63;;;;;;;3.52;74.88;100537.03;5060996;28;20032;-77
2021/04/10 05:04:08;;;;;;;11.90;1.98;;;;;;;3.54;75.15;100542.97;5092385;28;20099;-77
2021/04/10 05:06:34;;;;;;;8.05;1.85;;;;;;;3.55;75.44;100539.25;5087616;28;20040;-76
2021/04/10 05:09:00;;;;;;;7.13;2.00;;;;;;;3.58;75.04;100537.16;5081754;28;20024;-77
2021/04/10 05:11:27;;;;;;;5.65;1.27;;;;;;;3.64;75.19;100537.00;5077241;28;20024;-77
2021/04/10 05:13:54;;;;;;;7.07;1.50;;;;;;;3.70;75.64;100554.13;5075861;28;20077;-76
2021/04/10 05:16:20;;;;;;;10.85;1.88;;;;;;;3.76;75.38;100537.00;5087855;28;20028;-76
2021/04/10 05:18:46;;;;;;;9.60;1.92;;;;;;;3.79;75.27;100568.88;5091706;28;20019;-76
2021/04/10 05:21:11;;;;;;;9.60;1.27;;;;;;;3.82;75.13;100573.00;5088296;28;20028;-76
2021/04/10 05:23:37;;;;;;;5.72;1.27;;;;;;;3.89;74.78;100566.44;5091739;28;20024;-76
2021/04/10 05:26:03;;;;;;;8.43;1.35;;;;;;;3.91;74.29;100561.63;5090257;28;20031;-76
2021/04/10 05:28:28;;;;;;;10.95;2.67;;;;;;;3.92;74.32;100554.34;5092213;28;20024;-76
2021/04/10 05:30:54;;;;;;;6.70;1.05;;;;;;;3.93;74.34;100575.72;5091254;28;20085;-77
2021/04/10 05:33:19;;;;;;;12.50;1.88;;;;;;;3.94;74.36;100577.34;5092059;28;20036;-77
2021/04/10 05:35:45;;;;;;;8.50;1.27;;;;;;;3.94;73.93;100582.75;5072975;28;20016;-77
2021/04/10 05:38:10;;;;;;;9.77;1.65;;;;;;;3.99;74.13;100579.34;5090368;28;20028;-76
2021/04/10 05:40:35;;;;;;;8.80;2.20;;;;;;;3.99;74.20;100585.56;5089940;28;20028;-76
2021/04/10 05:43:01;;;;;;;6.07;1.88;;;;;;;3.99;74.54;100617.91;5086334;28;20024;-76
2021/04/10 05:45:26;;;;;;;9.10;1.50;;;;;;;3.99;73.97;100600.94;5091699;28;20044;-76
2021/04/10 05:47:52;;;;;;;7.70;1.65;;;;;;;3.99;74.00;100595.53;5090984;28;20023;-76
2021/04/10 05:50:20;;;;;;;9.93;1.45;;;;;;;4.04;74.45;100609.13;5089772;28;20421;-76
2021/04/10 05:52:47;;;;;;;10.60;1.67;;;;;;;4.07;73.81;100622.16;5084195;28;20046;-76
2021/04/10 05:55:12;;;;;;;10.07;1.92;;;;;;;4.10;73.89;100610.06;5090545;28;20028;-75
2021/04/10 05:57:39;;;;;;;12.95;1.63;;;;;;;4.16;74.11;100618.03;5087324;28;20093;-77
2021/04/10 06:00:07;;;;;;;9.60;2.05;;;;;;;4.21;73.61;100620.84;5073499;28;20534;-77
2021/04/10 06:02:33;;;;;;;12.65;2.03;;;;;;;4.29;73.30;100643.16;5091434;28;20062;-77
2021/04/10 06:05:00;;;;;;;8.98;1.50;;;;;;;4.37;73.13;100634.69;5087393;28;20020;-77
2021/04/10 06:07:25;;;;;;;10.57;1.95;;;;;;;4.40;72.42;100629.63;5074387;28;20039;-76
2021/04/10 06:09:51;;;;;;;10.27;2.88;;;;;;;4.45;72.04;100632.44;5067038;28;20396;-77
2021/04/10 06:12:16;;;;;;;10.32;2.00;;;;;;;4.50;71.67;100639.84;5079811;28;20038;-76
2021/04/10 06:14:42;;;;;;;6.82;2.05;;;;;;;4.52;71.56;100664.69;5085809;28;20035;-77
2021/04/10 06:17:07;;;;;;;9.90;1.73;;;;;;;4.53;70.91;100654.72;5088881;28;20487;-76
2021/04/10 06:19:32;;;;;;;5.97;1.30;;;;;;;4.58;70.63;100646.72;5071269;28;20039;-76
2021/04/10 06:22:00;;;;;;;13.75;2.38;;;;;;;4.58;69.80;100674.56;5088154;28;20024;-76
2021/04/10 06:24:25;;;;;;;13.77;2.67;;;;;;;4.64;69.93;100667.41;5079504;28;20020;-75
2021/04/10 06:26:51;;;;;;;9.10;2.08;;;;;;;4.70;69.45;100679.94;5084361;28;20042;-75
2021/04/10 06:29:16;;;;;;;7.57;1.77;;;;;;;4.70;69.61;100655.66;5086285;28;20062;-75
2021/04/10 06:31:41;;;;;;;8.82;1.83;;;;;;;4.72;69.68;100652.69;5086060;28;20077;-75
2021/04/10 06:34:08;;;;;;;6.20;1.20;;;;;;;4.71;68.38;100686.97;5085240;28;20040;-75
2021/04/10 06:36:34;;;;;;;7.85;1.92;;;;;;;4.72;68.39;100682.41;5083461;28;20063;-74
2021/04/10 06:39:00;;;;;;;8.00;1.75;;;;;;;4.70;68.03;100671.84;5066869;28;20024;-76
2021/04/10 06:41:25;;;;;;;10.80;1.30;;;;;;;4.71;67.93;100672.66;5087859;28;20055;-77
2021/04/10 06:43:51;;;;;;;9.98;1.73;;;;;;;4.80;68.02;100688.28;5083912;28;20023;-75
2021/04/10 06:46:16;;;;;;;19.85;3.50;;;;;;;4.84;68.46;100686.72;5081918;28;20660;-75
2021/04/10 06:48:43;;;;;;;8.23;2.50;;;;;;;4.81;67.81;100703.41;5069224;28;20024;-75
2021/04/10 06:51:10;;;;;;;6.10;1.40;;;;;;;4.80;68.11;100704.47;5082612;28;20039;-75
2021/04/10 06:53:42;;;;;;;7.95;2.17;;;;;;;4.86;67.89;100695.41;5084543;28;20032;-75
2021/04/10 06:56:08;;;;;;;12.43;2.53;;;;;;;4.85;67.73;100691.06;5082783;28;20035;-75
2021/04/10 06:59:20;;;;;;;10.45;1.95;;;;;;;4.88;68.34;100701.41;5063661;28;20115;-75
2021/04/10 07:01:46;;;;;;;7.53;1.92;;;;;;;4.91;68.27;100697.41;5075241;28;20036;-75
2021/04/10 07:04:11;;;;;;;12.40;2.65;;;;;;;4.98;68.38;100700.78;5075942;28;20024;-75
2021/04/10 07:06:37;;;;;;;9.13;3.20;;;;;;;5.03;67.57;100705.47;5081020;28;20027;-78
2021/04/10 07:09:02;;;;;;;13.80;2.50;;;;;;;5.04;67.62;100702.53;5076589;28;20043;-78
2021/04/10 07:11:28;;;;;;;8.93;1.40;;;;;;;5.09;67.65;100723.44;5086340;28;20023;-78
2021/04/10 07:13:53;;;;;;;11.60;1.88;;;;;;;5.15;68.05;100711.66;5081298;28;20030;-78
2021/04/10 07:16:19;;;;;;;3.53;1.13;;;;;;;5.16;67.99;100718.72;5067487;28;20039;-78
2021/04/10 07:18:44;;;;;;;10.32;2.30;;;;;;;5.11;67.73;100716.72;5083929;28;20032;-78
2021/04/10 07:21:21;;;;;;;7.32;1.52;;;;;;;5.11;67.53;100721.31;5080403;28;20051;-78
2021/04/10 07:23:50;;;;;;;8.68;2.10;;;;;;;5.06;67.15;100732.03;5081503;28;20107;-77
2021/04/10 07:26:17;;;;;;;9.82;1.83;;;;;;;5.07;67.50;100725.53;5083469;28;20184;-78
2021/04/10 07:28:43;;;;;;;10.50;1.90;;;;;;;5.12;67.85;100728.34;5065673;28;20016;-79
2021/04/10 07:31:17;;;;;;;15.82;2.50;;;;;;;5.16;67.49;100753.84;5067181;28;20024;-79
2021/04/10 07:33:44;;;;;;;19.20;2.25;;;;;;;5.26;67.26;100751.34;5097261;28;20028;-76
2021/04/10 07:36:14;;;;;;;12.48;1.63;;;;;;;5.39;67.61;100746.75;5083841;28;20028;-76
2021/04/10 07:38:41;;;;;;;9.13;1.48;;;;;;;5.48;67.48;100756.94;5086711;28;20104;-77
2021/04/10 07:41:26;;;;;;;10.02;1.90;;;;;;;5.58;67.36;100769.81;5086056;28;20473;-78
2021/04/10 07:43:52;;;;;;;8.93;1.60;;;;;;;5.50;66.81;100757.50;5085178;28;20043;-77
2021/04/10 07:46:18;;;;;;;10.25;1.45;;;;;;;5.50;66.42;100762.09;5082580;28;20509;-78
2021/04/10 07:49:07;;;;;;;5.68;1.58;;;;;;;5.59;66.04;100766.03;5082531;28;20019;-78
2021/04/10 07:51:36;;;;;;;6.07;2.28;;;;;;;5.55;66.07;100756.78;5081348;28;20020;-76
2021/04/10 07:54:21;;;;;;;13.32;2.63;;;;;;;5.48;66.37;100758.81;5085240;28;20024;-75
2021/04/10 07:57:02;;;;;;;9.98;2.60;;;;;;;5.51;66.44;100767.28;5085532;28;20036;-79
2021/04/10 07:59:29;;;;;;;16.48;1.90;;;;;;;5.68;66.38;100769.22;5086483;28;20031;-78
2021/04/10 08:02:09;;;;;;;8.82;1.65;;;;;;;5.80;66.11;100772.66;5080288;28;20101;-78
2021/04/10 08:04:35;;;;;;;8.80;2.17;;;;;;;5.84;66.17;100797.34;5066903;28;20096;-79
2021/04/10 08:07:00;;;;;;;8.85;2.38;;;;;;;5.79;66.32;100777.25;5064405;28;20024;-80
2021/04/10 08:09:30;;;;;;;11.65;1.98;;;;;;;5.68;65.96;100788.97;5087580;28;20105;-78
2021/04/10 08:11:56;;;;;;;11.40;2.38;;;;;;;5.66;66.72;100807.31;5090336;28;20463;-78
2021/04/10 08:14:21;;;;;;;14.93;2.22;;;;;;;5.75;66.85;100803.16;5090125;28;20028;-77
2021/04/10 08:16:48;;;;;;;8.65;2.08;;;;;;;5.84;66.78;100800.06;5087945;28;20030;-78
2021/04/10 08:19:14;;;;;;;8.65;1.77;;;;;;;5.87;66.83;100821.25;5084487;28;20480;-78
2021/04/10 08:21:48;;;;;;;12.05;2.00;;;;;;;5.96;67.06;100820.63;5082624;28;20028;-79
2021/04/10 08:24:20;;;;;;;12.07;2.33;;;;;;;6.02;66.75;100813.41;5088073;28;20031;-79
2021/04/10 08:26:45;;;;;;;12.30;1.88;;;;;;;6.04;66.94;100842.97;5079550;28;20024;-78
2021/04/10 08:29:11;;;;;;;11.63;2.78;;;;;;;6.05;66.68;100845.41;5086265;28;20392;-78
2021/04/10 08:31:36;;;;;;;13.40;1.90;;;;;;;6.06;67.07;100857.91;5090409;28;20032;-78
2021/04/10 08:34:01;;;;;;;14.52;2.75;;;;;;;6.11;67.04;100839.03;5091740;28;20024;-79
2021/04/10 08:36:27;;;;;;;11.75;2.28;;;;;;;6.21;67.09;100841.91;5069237;28;20016;-79
2021/04/10 08:38:52;;;;;;;14.38;2.90;;;;;;;6.26;66.91;100846.59;5068138;28;20035;-76
2021/04/10 08:41:18;;;;;;;11.73;2.40;;;;;;;6.29;67.06;100842.59;5064976;28;20032;-78
2021/04/10 08:43:49;;;;;;;8.88;1.90;;;;;;;6.35;67.00;100871.41;5079675;28;20097;-82
2021/04/10 08:46:17;;;;;;;16.73;2.30;;;;;;;6.29;66.30;100851.53;5067939;28;20036;-82
2021/04/10 08:48:42;;;;;;;9.95;2.15;;;;;;;6.24;66.37;100859.56;5066922;28;20036;-80
2021/04/10 08:51:08;;;;;;;11.38;2.00;;;;;;;6.34;66.78;100864.34;5070523;28;20031;-82
2021/04/10 08:53:39;;;;;;;18.15;2.53;;;;;;;6.41;66.71;100870.41;5072194;28;20028;-81
2021/04/10 08:56:08;;;;;;;9.80;2.47;;;;;;;6.51;66.57;100854.34;5085545;28;20036;-81
2021/04/10 08:58:36;;;;;;;14.45;2.97;;;;;;;6.67;66.40;100872.50;5084557;28;20059;-83
2021/04/10 09:01:03;;;;;;;14.98;2.55;;;;;;;6.67;66.21;100869.78;5084431;28;20078;-80
2021/04/10 09:03:47;;;;;;;20.08;2.40;;;;;;;6.65;66.32;100866.50;5086231;28;20032;-78
2021/04/10 09:06:13;;;;;;;13.02;3.53;;;;;;;6.60;66.77;100869.16;5085067;28;20024;-80
2021/04/10 09:08:39;;;;;;;13.57;2.20;;;;;;;6.52;66.40;100877.69;5080329;28;20031;-79
2021/04/10 09:11:05;;;;;;;12.30;2.22;;;;;;;6.51;66.47;100876.00;5089175;28;20110;-79
2021/04/10 09:13:44;;;;;;;10.00;2.63;;;;;;;6.65;66.44;100880.03;5074028;28;20099;-78
2021/04/10 09:16:29;;;;;;;13.02;2.30;;;;;;;6.71;66.28;100880.13;5088330;28;20038;-80
2021/04/10 09:19:11;;;;;;;14.55;2.55;;;;;;;6.64;66.24;100888.44;5084030;28;20043;-81
2021/04/10 09:21:55;;;;;;;14.20;3.20;;;;;;;6.60;65.63;100895.38;5083794;28;20382;-79
2021/04/10 09:24:21;;;;;;;16.85;2.53;;;;;;;6.50;65.78;100885.22;5085371;28;20028;-79
2021/04/10 09:27:17;;;;;;;8.88;1.95;;;;;;;6.47;66.14;100918.22;5087170;28;20077;-79
2021/04/10 09:29:45;;;;;;;14.52;1.98;;;;;;;6.44;65.94;100899.75;5086283;28;20027;-76
2021/04/10 09:32:10;;;;;;;13.88;3.20;;;;;;;6.46;65.80;100894.88;5070294;28;20016;-77
2021/04/10 09:34:51;;;;;;;6.13;1.58;;;;;;;6.41;65.29;100900.19;5082507;28;20440;-83
2021/04/10 09:37:20;;;;;;;14.25;1.25;;;;;;;6.28;65.06;100911.34;5089884;28;20024;-81
2021/04/10 09:39:59;;;;;;;10.55;2.00;;;;;;;6.30;65.32;100906.50;5089870;28;20491;-76
2021/04/10 09:42:44;;;;;;;10.23;1.85;;;;;;;6.27;64.95;100918.63;5087000;28;20054;-76
2021/04/10 09:45:10;;;;;;;8.05;1.42;;;;;;;6.34;65.09;100921.22;5079670;28;20044;-82
2021/04/10 09:47:54;;;;;;;7.60;1.45;;;;;;;6.40;65.06;100934.59;5090289;28;20028;-82
2021/04/10 09:50:27;;;;;;;11.45;2.10;;;;;;;6.44;64.98;100946.59;5090037;28;20035;-82
2021/04/10 09:52:56;;;;;;;11.82;2.75;;;;;;;6.44;65.21;100948.50;5085026;28;20054;-79
2021/04/10 09:55:21;;;;;;;7.40;1.85;;;;;;;6.43;65.09;100955.75;5084480;28;20515;-78
2021/04/10 09:58:00;;;;;;;6.47;1.65;;;;;;;6.47;64.76;100947.19;5083569;28;20042;-78
2021/04/10 10:00:32;;;;;;;14.43;2.92;;;;;;;6.45;64.21;100955.53;5082204;28;20062;-81
2021/04/10 10:02:58;;;;;;;;;;;;;;;6.46;63.97;100949.03;5083074;28;20103;-79
2021/04/10 10:05:24;;;;;;;6.35;0.95;;;;;;;6.51;64.18;100973.53;5089484;28;19919;-79
2021/04/10 10:07:52;;;;;;;9.27;1.90;;;;;;;6.51;63.54;100959.16;5088971;28;20024;-79
2021/04/10 10:10:18;;;;;;;15.57;1.83;;;;;;;6.55;63.45;100980.13;5087031;28;20035;-78
2021/04/10 10:12:43;;;;;;;7.43;1.42;;;;;;;6.61;63.55;100968.31;5089328;28;20428;-79
2021/04/10 10:15:24;;;;;;;4.32;1.40;;;;;;;6.62;63.73;100972.66;5087156;28;20039;-80
2021/04/10 10:17:50;;;;;;;12.93;2.13;;;;;;;6.62;63.83;100969.94;5081882;28;20418;-83
2021/04/10 10:20:16;;;;;;;13.90;2.00;;;;;;;6.66;63.69;100975.72;5086062;28;20024;-83
2021/04/10 10:22:42;;;;;;;10.07;1.60;;;;;;;6.72;63.86;100992.88;5081536;28;20025;-83
2021/04/10 10:25:08;;;;;;;14.45;2.35;;;;;;;6.71;63.79;100993.94;5081679;28;20028;-79
2021/04/10 10:27:37;;;;;;;15.13;3.20;;;;;;;6.73;63.83;100991.81;5084325;28;20362;-81
2021/04/10 10:30:24;;;;;;;10.88;2.67;;;;;;;6.80;64.21;100976.22;5081413;28;20043;-81
2021/04/10 10:32:50;;;;;;;9.20;1.73;;;;;;;6.85;63.77;100979.03;5078479;28;20020;-81
2021/04/10 10:35:17;;;;;;;14.15;2.03;;;;;;;6.89;64.05;100985.59;5089737;28;20024;-82
2021/04/10 10:37:46;;;;;;;21.13;2.80;;;;;;;7.00;63.62;100981.16;5077091;28;20062;-79
2021/04/10 10:40:24;;;;;;;4.72;1.33;;;;;;;7.02;63.83;100981.75;5069338;28;20028;-81
2021/04/10 10:43:06;;;;;;;7.50;1.50;;;;;;;7.10;63.82;100993.00;5070102;28;20046;-80
2021/04/10 10:45:38;;;;;;;6.45;1.45;;;;;;;7.17;63.25;100986.59;5085226;28;20048;-79
2021/04/10 10:48:21;;;;;;;12.13;1.85;;;;;;;7.27;63.30;100986.78;5084698;28;20047;-79
2021/04/10 10:50:47;;;;;;;13.18;2.53;;;;;;;7.31;63.51;101004.19;5082852;28;20035;-79
2021/04/10 10:53:18;;;;;;;5.63;1.52;;;;;;;7.36;63.95;100992.59;5073124;28;20031;-78
2021/04/10 10:55:54;;;;;;;11.40;2.08;;;;;;;7.38;63.88;101007.56;5082369;28;20758;-79
2021/04/10 10:58:19;;;;;;;11.13;2.47;;;;;;;7.43;63.62;101007.63;5069098;28;20105;-81
2021/04/10 11:00:45;;;;;;;15.18;2.33;;;;;;;7.50;63.65;101008.31;5089349;28;20442;-77
2021/04/10 11:03:10;;;;;;;6.93;1.30;;;;;;;7.62;63.56;101004.69;5087398;28;20085;-78
2021/04/10 11:05:36;;;;;;;10.90;2.45;;;;;;;7.59;63.31;100999.75;5084114;28;20024;-77
2021/04/10 11:08:03;;;;;;;8.63;2.05;;;;;;;7.57;62.83;101008.94;5078440;28;20070;-77
2021/04/10 11:10:28;;;;;;;10.98;2.08;;;;;;;7.59;62.55;101016.84;5067745;28;20028;-78
2021/04/10 11:12:53;;;;;;;8.38;1.75;;;;;;;7.68;62.73;101007.19;5083147;28;20358;-76
2021/04/10 11:15:19;;;;;;;7.55;2.40;;;;;;;7.90;62.93;101012.66;5061057;28;20032;-77
2021/04/10 11:17:44;;;;;;;13.98;2.20;;;;;;;8.15;62.34;101019.50;5062382;28;20025;-78
2021/04/10 11:20:32;;;;;;;10.23;2.65;;;;;;;8.15;61.86;101019.50;5079456;28;20076;-77
2021/04/10 11:23:07;;;;;;;8.57;2.00;;;;;;;8.23;61.83;101016.34;5077007;28;20476;-78
2021/04/10 11:25:51;;;;;;;12.30;2.20;;;;;;;8.28;61.24;101024.56;5089684;28;20371;-79
2021/04/10 11:28:30;;;;;;;6.72;1.88;;;;;;;8.38;61.41;101027.44;5066568;28;20082;-78
2021/04/10 11:31:05;;;;;;;14.10;2.60;;;;;;;8.51;61.30;101041.72;5080632;28;20073;-79
2021/04/10 11:33:32;;;;;;;11.35;2.22;;;;;;;8.68;60.67;101037.03;5081856;28;20369;-78
2021/04/10 11:35:58;;;;;;;11.15;2.38;;;;;;;8.73;60.40;101058.00;5085870;28;20138;-78